sensor_id;sensor_type;location;lat;lon;timestamp;P1;durP1;ratioP1;P2;durP2;ratioP2
24650;SDS011;12783;48.824;8.662;2023-12-28T00:00:12;1.33;;;1.10;;
24650;SDS011;12783;48.824;8.662;2023-12-28T00:02:39;2.83;;;1.10;;
24650;SDS011;12783;48.824;8.662;2023-12-28T00:05:07;1.75;;;1.10;;
24650;SDS011;12783;48.824;8.662;2023-12-28T00:07:34;7.03;;;1.23;;
24650;SDS011;12783;48.824;8.662;2023-12-28T00:10:02;1.90;;;1.15;;
24650;SDS011;12783;48.824;8.662;2023-12-28T00:12:30;2.10;;;1.23;;
24650;SDS011;12783;48.824;8.662;2023-12-28T00:14:57;2.05;;;1.20;;
24650;SDS011;12783;48.824;8.662;2023-12-28T00:17:24;1.50;;;0.95;;
24650;SDS011;12783;48.824;8.662;2023-12-28T00:19:51;1.40;;;1.10;;
24650;SDS011;12783;48.824;8.662;2023-12-28T00:22:18;1.60;;;1.00;;
24650;SDS011;12783;48.824;8.662;2023-12-28T00:24:44;2.00;;;1.20;;
24650;SDS011;12783;48.824;8.662;2023-12-28T00:27:11;1.27;;;0.90;;
24650;SDS011;12783;48.824;8.662;2023-12-28T00:29:38;1.63;;;0.90;;
24650;SDS011;12783;48.824;8.662;2023-12-28T00:32:05;1.77;;;1.30;;
24650;SDS011;12783;48.824;8.662;2023-12-28T00:34:32;2.28;;;1.20;;
24650;SDS011;12783;48.824;8.662;2023-12-28T00:37:00;1.73;;;1.10;;
24650;SDS011;12783;48.824;8.662;2023-12-28T00:39:26;1.98;;;1.13;;
24650;SDS011;12783;48.824;8.662;2023-12-28T00:41:53;1.38;;;1.10;;
24650;SDS011;12783;48.824;8.662;2023-12-28T00:44:20;1.23;;;0.90;;
24650;SDS011;12783;48.824;8.662;2023-12-28T00:46:47;2.25;;;1.27;;
24650;SDS011;12783;48.824;8.662;2023-12-28T00:49:14;2.08;;;1.13;;
24650;SDS011;12783;48.824;8.662;2023-12-28T00:51:41;2.17;;;1.00;;
24650;SDS011;12783;48.824;8.662;2023-12-28T00:54:08;1.85;;;1.20;;
24650;SDS011;12783;48.824;8.662;2023-12-28T00:56:35;1.75;;;1.10;;
24650;SDS011;12783;48.824;8.662;2023-12-28T00:59:02;2.60;;;0.98;;
24650;SDS011;12783;48.824;8.662;2023-12-28T01:01:29;1.67;;;0.98;;
24650;SDS011;12783;48.824;8.662;2023-12-28T01:03:59;3.40;;;1.23;;
24650;SDS011;12783;48.824;8.662;2023-12-28T01:06:26;1.75;;;0.90;;
24650;SDS011;12783;48.824;8.662;2023-12-28T01:08:55;1.20;;;1.10;;
24650;SDS011;12783;48.824;8.662;2023-12-28T01:11:22;1.13;;;0.82;;
24650;SDS011;12783;48.824;8.662;2023-12-28T01:13:48;2.50;;;1.00;;
24650;SDS011;12783;48.824;8.662;2023-12-28T01:16:17;1.50;;;1.00;;
24650;SDS011;12783;48.824;8.662;2023-12-28T01:18:44;2.15;;;1.20;;
24650;SDS011;12783;48.824;8.662;2023-12-28T01:21:11;1.27;;;1.08;;
24650;SDS011;12783;48.824;8.662;2023-12-28T01:23:38;1.73;;;1.17;;
24650;SDS011;12783;48.824;8.662;2023-12-28T01:26:05;1.75;;;1.10;;
24650;SDS011;12783;48.824;8.662;2023-12-28T01:28:32;1.42;;;0.95;;
24650;SDS011;12783;48.824;8.662;2023-12-28T01:30:59;1.75;;;1.05;;
24650;SDS011;12783;48.824;8.662;2023-12-28T01:33:25;1.02;;;0.77;;
24650;SDS011;12783;48.824;8.662;2023-12-28T01:35:53;1.55;;;1.17;;
24650;SDS011;12783;48.824;8.662;2023-12-28T01:38:19;1.50;;;0.95;;
24650;SDS011;12783;48.824;8.662;2023-12-28T01:40:46;1.48;;;0.93;;
24650;SDS011;12783;48.824;8.662;2023-12-28T01:43:13;3.22;;;1.20;;
24650;SDS011;12783;48.824;8.662;2023-12-28T01:45:40;2.00;;;1.25;;
24650;SDS011;12783;48.824;8.662;2023-12-28T01:48:07;1.35;;;0.90;;
24650;SDS011;12783;48.824;8.662;2023-12-28T01:50:36;1.67;;;0.98;;
24650;SDS011;12783;48.824;8.662;2023-12-28T01:53:03;2.22;;;1.35;;
24650;SDS011;12783;48.824;8.662;2023-12-28T01:55:30;1.10;;;0.90;;
24650;SDS011;12783;48.824;8.662;2023-12-28T01:57:59;1.63;;;1.00;;
24650;SDS011;12783;48.824;8.662;2023-12-28T02:00:27;2.03;;;1.00;;
24650;SDS011;12783;48.824;8.662;2023-12-28T02:02:54;6.35;;;1.02;;
24650;SDS011;12783;48.824;8.662;2023-12-28T02:05:21;1.60;;;1.08;;
24650;SDS011;12783;48.824;8.662;2023-12-28T02:07:48;1.60;;;1.23;;
24650;SDS011;12783;48.824;8.662;2023-12-28T02:10:15;1.40;;;1.02;;
24650;SDS011;12783;48.824;8.662;2023-12-28T02:12:42;1.60;;;1.10;;
24650;SDS011;12783;48.824;8.662;2023-12-28T02:15:09;2.10;;;1.08;;
24650;SDS011;12783;48.824;8.662;2023-12-28T02:17:38;1.55;;;1.10;;
24650;SDS011;12783;48.824;8.662;2023-12-28T02:20:14;2.33;;;1.00;;
24650;SDS011;12783;48.824;8.662;2023-12-28T02:22:43;1.42;;;1.10;;
24650;SDS011;12783;48.824;8.662;2023-12-28T02:25:11;1.17;;;0.85;;
24650;SDS011;12783;48.824;8.662;2023-12-28T02:27:40;1.75;;;1.20;;
24650;SDS011;12783;48.824;8.662;2023-12-28T02:30:17;1.42;;;1.10;;
24650;SDS011;12783;48.824;8.662;2023-12-28T02:33:04;1.98;;;1.35;;
24650;SDS011;12783;48.824;8.662;2023-12-28T02:36:07;2.58;;;1.02;;
24650;SDS011;12783;48.824;8.662;2023-12-28T02:38:37;1.52;;;1.00;;
24650;SDS011;12783;48.824;8.662;2023-12-28T02:41:05;1.58;;;1.05;;
24650;SDS011;12783;48.824;8.662;2023-12-28T02:43:33;1.80;;;1.10;;
24650;SDS011;12783;48.824;8.662;2023-12-28T02:46:01;1.80;;;1.13;;
24650;SDS011;12783;48.824;8.662;2023-12-28T02:48:27;2.42;;;0.88;;
24650;SDS011;12783;48.824;8.662;2023-12-28T02:50:55;2.05;;;1.27;;
24650;SDS011;12783;48.824;8.662;2023-12-28T02:53:22;1.40;;;1.02;;
24650;SDS011;12783;48.824;8.662;2023-12-28T02:55:48;1.70;;;0.98;;
24650;SDS011;12783;48.824;8.662;2023-12-28T02:58:15;2.83;;;0.98;;
24650;SDS011;12783;48.824;8.662;2023-12-28T03:00:42;2.10;;;1.00;;
24650;SDS011;12783;48.824;8.662;2023-12-28T03:03:09;1.83;;;1.13;;
24650;SDS011;12783;48.824;8.662;2023-12-28T03:05:36;1.02;;;0.82;;
24650;SDS011;12783;48.824;8.662;2023-12-28T03:08:03;1.85;;;1.05;;
24650;SDS011;12783;48.824;8.662;2023-12-28T03:10:30;2.15;;;1.25;;
24650;SDS011;12783;48.824;8.662;2023-12-28T03:12:57;1.30;;;0.80;;
24650;SDS011;12783;48.824;8.662;2023-12-28T03:15:24;1.92;;;1.10;;
24650;SDS011;12783;48.824;8.662;2023-12-28T03:17:51;1.35;;;1.05;;
24650;SDS011;12783;48.824;8.662;2023-12-28T03:20:18;1.25;;;1.02;;
24650;SDS011;12783;48.824;8.662;2023-12-28T03:22:46;1.77;;;1.10;;
24650;SDS011;12783;48.824;8.662;2023-12-28T03:25:14;1.52;;;0.90;;
24650;SDS011;12783;48.824;8.662;2023-12-28T03:27:41;1.00;;;0.90;;
24650;SDS011;12783;48.824;8.662;2023-12-28T03:30:09;3.45;;;1.10;;
24650;SDS011;12783;48.824;8.662;2023-12-28T03:32:37;2.05;;;1.17;;
24650;SDS011;12783;48.824;8.662;2023-12-28T03:35:04;1.60;;;0.98;;
24650;SDS011;12783;48.824;8.662;2023-12-28T03:37:33;1.75;;;1.00;;
24650;SDS011;12783;48.824;8.662;2023-12-28T03:40:01;2.58;;;0.82;;
24650;SDS011;12783;48.824;8.662;2023-12-28T03:42:28;2.03;;;1.00;;
24650;SDS011;12783;48.824;8.662;2023-12-28T03:44:55;2.47;;;1.23;;
24650;SDS011;12783;48.824;8.662;2023-12-28T03:47:22;2.38;;;1.05;;
24650;SDS011;12783;48.824;8.662;2023-12-28T03:49:50;1.10;;;1.00;;
24650;SDS011;12783;48.824;8.662;2023-12-28T03:52:17;1.73;;;1.10;;
24650;SDS011;12783;48.824;8.662;2023-12-28T03:54:44;1.10;;;1.00;;
24650;SDS011;12783;48.824;8.662;2023-12-28T03:57:11;1.60;;;1.25;;
24650;SDS011;12783;48.824;8.662;2023-12-28T03:59:39;2.45;;;1.00;;
24650;SDS011;12783;48.824;8.662;2023-12-28T04:02:06;1.00;;;0.90;;
24650;SDS011;12783;48.824;8.662;2023-12-28T04:04:33;2.03;;;1.10;;
24650;SDS011;12783;48.824;8.662;2023-12-28T04:07:00;1.92;;;1.20;;
24650;SDS011;12783;48.824;8.662;2023-12-28T04:09:27;1.55;;;1.00;;
24650;SDS011;12783;48.824;8.662;2023-12-28T04:11:53;2.25;;;1.10;;
24650;SDS011;12783;48.824;8.662;2023-12-28T04:14:20;1.92;;;1.08;;
24650;SDS011;12783;48.824;8.662;2023-12-28T04:16:47;1.63;;;0.95;;
24650;SDS011;12783;48.824;8.662;2023-12-28T04:19:14;1.52;;;0.90;;
24650;SDS011;12783;48.824;8.662;2023-12-28T04:21:44;2.03;;;1.13;;
24650;SDS011;12783;48.824;8.662;2023-12-28T04:24:12;4.13;;;1.00;;
24650;SDS011;12783;48.824;8.662;2023-12-28T04:26:39;2.15;;;1.20;;
24650;SDS011;12783;48.824;8.662;2023-12-28T04:29:07;2.28;;;1.00;;
24650;SDS011;12783;48.824;8.662;2023-12-28T04:31:39;1.40;;;1.02;;
24650;SDS011;12783;48.824;8.662;2023-12-28T04:34:09;1.98;;;1.00;;
24650;SDS011;12783;48.824;8.662;2023-12-28T04:36:39;3.38;;;1.00;;
24650;SDS011;12783;48.824;8.662;2023-12-28T04:39:08;1.70;;;0.98;;
24650;SDS011;12783;48.824;8.662;2023-12-28T04:41:35;1.90;;;1.17;;
24650;SDS011;12783;48.824;8.662;2023-12-28T04:44:02;1.48;;;1.17;;
24650;SDS011;12783;48.824;8.662;2023-12-28T04:46:29;2.20;;;1.27;;
24650;SDS011;12783;48.824;8.662;2023-12-28T04:48:56;1.35;;;0.75;;
24650;SDS011;12783;48.824;8.662;2023-12-28T04:51:23;1.33;;;0.90;;
24650;SDS011;12783;48.824;8.662;2023-12-28T04:53:50;2.85;;;1.00;;
24650;SDS011;12783;48.824;8.662;2023-12-28T04:56:18;1.33;;;0.68;;
24650;SDS011;12783;48.824;8.662;2023-12-28T04:58:45;1.85;;;0.80;;
24650;SDS011;12783;48.824;8.662;2023-12-28T05:01:12;1.77;;;0.75;;
24650;SDS011;12783;48.824;8.662;2023-12-28T05:03:39;1.48;;;0.82;;
24650;SDS011;12783;48.824;8.662;2023-12-28T05:06:06;3.50;;;1.00;;
24650;SDS011;12783;48.824;8.662;2023-12-28T05:08:33;3.67;;;1.60;;
24650;SDS011;12783;48.824;8.662;2023-12-28T05:11:00;5.55;;;1.15;;
24650;SDS011;12783;48.824;8.662;2023-12-28T05:13:27;1.35;;;0.90;;
24650;SDS011;12783;48.824;8.662;2023-12-28T05:15:54;1.60;;;0.85;;
24650;SDS011;12783;48.824;8.662;2023-12-28T05:18:21;1.00;;;0.70;;
24650;SDS011;12783;48.824;8.662;2023-12-28T05:20:48;4.85;;;0.90;;
24650;SDS011;12783;48.824;8.662;2023-12-28T05:23:15;1.45;;;0.95;;
24650;SDS011;12783;48.824;8.662;2023-12-28T05:25:42;4.20;;;1.20;;
24650;SDS011;12783;48.824;8.662;2023-12-28T05:28:09;1.95;;;0.90;;
24650;SDS011;12783;48.824;8.662;2023-12-28T05:30:36;2.45;;;1.42;;
24650;SDS011;12783;48.824;8.662;2023-12-28T05:33:04;2.33;;;1.00;;
24650;SDS011;12783;48.824;8.662;2023-12-28T05:35:31;1.17;;;0.93;;
24650;SDS011;12783;48.824;8.662;2023-12-28T05:37:57;1.63;;;0.80;;
24650;SDS011;12783;48.824;8.662;2023-12-28T05:40:24;3.97;;;1.15;;
24650;SDS011;12783;48.824;8.662;2023-12-28T05:42:51;1.38;;;0.88;;
24650;SDS011;12783;48.824;8.662;2023-12-28T05:45:18;2.20;;;1.05;;
24650;SDS011;12783;48.824;8.662;2023-12-28T05:47:45;1.60;;;1.00;;
24650;SDS011;12783;48.824;8.662;2023-12-28T05:50:12;2.20;;;1.00;;
24650;SDS011;12783;48.824;8.662;2023-12-28T05:52:39;2.13;;;0.90;;
24650;SDS011;12783;48.824;8.662;2023-12-28T05:55:07;2.35;;;1.40;;
24650;SDS011;12783;48.824;8.662;2023-12-28T05:57:34;2.67;;;1.30;;
24650;SDS011;12783;48.824;8.662;2023-12-28T06:00:01;1.85;;;0.90;;
24650;SDS011;12783;48.824;8.662;2023-12-28T06:02:30;1.30;;;1.08;;
24650;SDS011;12783;48.824;8.662;2023-12-28T06:04:57;1.33;;;1.00;;
24650;SDS011;12783;48.824;8.662;2023-12-28T06:07:24;1.42;;;1.33;;
24650;SDS011;12783;48.824;8.662;2023-12-28T06:09:52;1.20;;;0.75;;
24650;SDS011;12783;48.824;8.662;2023-12-28T06:12:19;2.72;;;1.30;;
24650;SDS011;12783;48.824;8.662;2023-12-28T06:14:45;1.27;;;0.80;;
24650;SDS011;12783;48.824;8.662;2023-12-28T06:17:12;2.17;;;1.10;;
24650;SDS011;12783;48.824;8.662;2023-12-28T06:19:42;3.78;;;1.10;;
24650;SDS011;12783;48.824;8.662;2023-12-28T06:22:09;1.25;;;1.00;;
24650;SDS011;12783;48.824;8.662;2023-12-28T06:24:39;1.45;;;1.08;;
24650;SDS011;12783;48.824;8.662;2023-12-28T06:27:06;1.88;;;1.00;;
24650;SDS011;12783;48.824;8.662;2023-12-28T06:29:33;1.08;;;0.90;;
24650;SDS011;12783;48.824;8.662;2023-12-28T06:32:00;2.15;;;1.02;;
24650;SDS011;12783;48.824;8.662;2023-12-28T06:34:27;3.10;;;1.15;;
24650;SDS011;12783;48.824;8.662;2023-12-28T06:36:54;2.42;;;1.00;;
24650;SDS011;12783;48.824;8.662;2023-12-28T06:39:21;1.10;;;0.82;;
24650;SDS011;12783;48.824;8.662;2023-12-28T06:41:48;3.88;;;1.40;;
24650;SDS011;12783;48.824;8.662;2023-12-28T06:44:15;1.98;;;1.02;;
24650;SDS011;12783;48.824;8.662;2023-12-28T06:46:42;1.75;;;1.00;;
24650;SDS011;12783;48.824;8.662;2023-12-28T06:49:09;2.55;;;0.95;;
24650;SDS011;12783;48.824;8.662;2023-12-28T06:51:37;4.22;;;0.90;;
24650;SDS011;12783;48.824;8.662;2023-12-28T06:54:04;4.25;;;1.35;;
24650;SDS011;12783;48.824;8.662;2023-12-28T06:56:31;2.42;;;1.42;;
24650;SDS011;12783;48.824;8.662;2023-12-28T06:58:57;2.13;;;1.20;;
24650;SDS011;12783;48.824;8.662;2023-12-28T07:01:24;2.10;;;1.38;;
24650;SDS011;12783;48.824;8.662;2023-12-28T07:03:51;2.67;;;1.23;;
24650;SDS011;12783;48.824;8.662;2023-12-28T07:06:18;2.60;;;1.30;;
24650;SDS011;12783;48.824;8.662;2023-12-28T07:08:45;2.35;;;1.33;;
24650;SDS011;12783;48.824;8.662;2023-12-28T07:11:12;3.90;;;1.40;;
24650;SDS011;12783;48.824;8.662;2023-12-28T07:13:39;3.03;;;1.25;;
24650;SDS011;12783;48.824;8.662;2023-12-28T07:16:06;3.60;;;1.30;;
24650;SDS011;12783;48.824;8.662;2023-12-28T07:18:34;1.50;;;0.93;;
24650;SDS011;12783;48.824;8.662;2023-12-28T07:21:01;5.30;;;1.40;;
24650;SDS011;12783;48.824;8.662;2023-12-28T07:23:28;2.30;;;1.60;;
24650;SDS011;12783;48.824;8.662;2023-12-28T07:25:55;3.53;;;1.30;;
24650;SDS011;12783;48.824;8.662;2023-12-28T07:28:22;2.25;;;1.50;;
24650;SDS011;12783;48.824;8.662;2023-12-28T07:30:49;5.82;;;1.67;;
24650;SDS011;12783;48.824;8.662;2023-12-28T07:33:16;1.33;;;1.15;;
24650;SDS011;12783;48.824;8.662;2023-12-28T07:35:43;2.08;;;1.40;;
24650;SDS011;12783;48.824;8.662;2023-12-28T07:38:10;2.42;;;1.50;;
24650;SDS011;12783;48.824;8.662;2023-12-28T07:40:37;3.45;;;1.13;;
24650;SDS011;12783;48.824;8.662;2023-12-28T07:43:04;1.65;;;1.20;;
24650;SDS011;12783;48.824;8.662;2023-12-28T07:45:31;2.22;;;1.33;;
24650;SDS011;12783;48.824;8.662;2023-12-28T07:47:59;3.08;;;1.30;;
24650;SDS011;12783;48.824;8.662;2023-12-28T07:50:26;4.22;;;1.45;;
24650;SDS011;12783;48.824;8.662;2023-12-28T07:52:53;1.75;;;1.33;;
24650;SDS011;12783;48.824;8.662;2023-12-28T07:55:20;3.45;;;1.48;;
24650;SDS011;12783;48.824;8.662;2023-12-28T07:57:47;2.78;;;1.52;;
24650;SDS011;12783;48.824;8.662;2023-12-28T08:00:14;2.88;;;1.45;;
24650;SDS011;12783;48.824;8.662;2023-12-28T08:02:41;5.68;;;1.40;;
24650;SDS011;12783;48.824;8.662;2023-12-28T08:05:08;1.95;;;1.52;;
24650;SDS011;12783;48.824;8.662;2023-12-28T08:07:35;4.65;;;1.40;;
24650;SDS011;12783;48.824;8.662;2023-12-28T08:10:02;4.15;;;1.30;;
24650;SDS011;12783;48.824;8.662;2023-12-28T08:12:30;5.20;;;1.80;;
24650;SDS011;12783;48.824;8.662;2023-12-28T08:14:58;4.03;;;1.52;;
24650;SDS011;12783;48.824;8.662;2023-12-28T08:17:26;4.30;;;1.60;;
24650;SDS011;12783;48.824;8.662;2023-12-28T08:19:53;3.17;;;1.60;;
24650;SDS011;12783;48.824;8.662;2023-12-28T08:22:20;2.92;;;1.90;;
24650;SDS011;12783;48.824;8.662;2023-12-28T08:24:47;3.80;;;2.10;;
24650;SDS011;12783;48.824;8.662;2023-12-28T08:27:14;4.95;;;2.20;;
24650;SDS011;12783;48.824;8.662;2023-12-28T08:29:41;4.65;;;2.10;;
24650;SDS011;12783;48.824;8.662;2023-12-28T08:32:11;3.30;;;2.10;;
24650;SDS011;12783;48.824;8.662;2023-12-28T08:34:38;4.38;;;2.00;;
24650;SDS011;12783;48.824;8.662;2023-12-28T08:37:06;3.22;;;1.30;;
24650;SDS011;12783;48.824;8.662;2023-12-28T08:39:33;4.38;;;1.38;;
24650;SDS011;12783;48.824;8.662;2023-12-28T08:42:00;4.13;;;1.40;;
24650;SDS011;12783;48.824;8.662;2023-12-28T08:44:27;6.30;;;1.67;;
24650;SDS011;12783;48.824;8.662;2023-12-28T08:46:54;1.88;;;1.30;;
24650;SDS011;12783;48.824;8.662;2023-12-28T08:49:21;5.07;;;1.80;;
24650;SDS011;12783;48.824;8.662;2023-12-28T08:51:49;3.97;;;1.88;;
24650;SDS011;12783;48.824;8.662;2023-12-28T08:54:17;6.45;;;1.95;;
24650;SDS011;12783;48.824;8.662;2023-12-28T08:56:44;3.35;;;2.00;;
24650;SDS011;12783;48.824;8.662;2023-12-28T08:59:14;2.42;;;1.60;;
24650;SDS011;12783;48.824;8.662;2023-12-28T09:01:41;3.28;;;1.60;;
24650;SDS011;12783;48.824;8.662;2023-12-28T09:04:08;4.10;;;2.03;;
24650;SDS011;12783;48.824;8.662;2023-12-28T09:06:35;2.20;;;1.50;;
24650;SDS011;12783;48.824;8.662;2023-12-28T09:09:02;2.13;;;1.40;;
24650;SDS011;12783;48.824;8.662;2023-12-28T09:11:30;5.40;;;1.98;;
24650;SDS011;12783;48.824;8.662;2023-12-28T09:13:57;3.83;;;1.20;;
24650;SDS011;12783;48.824;8.662;2023-12-28T09:16:24;2.85;;;1.50;;
24650;SDS011;12783;48.824;8.662;2023-12-28T09:18:51;2.78;;;1.45;;
24650;SDS011;12783;48.824;8.662;2023-12-28T09:21:18;2.22;;;1.27;;
24650;SDS011;12783;48.824;8.662;2023-12-28T09:23:45;4.05;;;1.65;;
24650;SDS011;12783;48.824;8.662;2023-12-28T09:26:12;1.95;;;1.13;;
24650;SDS011;12783;48.824;8.662;2023-12-28T09:28:39;2.72;;;1.67;;
24650;SDS011;12783;48.824;8.662;2023-12-28T09:31:07;3.25;;;1.40;;
24650;SDS011;12783;48.824;8.662;2023-12-28T09:33:34;3.22;;;1.40;;
24650;SDS011;12783;48.824;8.662;2023-12-28T09:36:03;5.07;;;1.50;;
24650;SDS011;12783;48.824;8.662;2023-12-28T09:38:30;2.75;;;1.55;;
24650;SDS011;12783;48.824;8.662;2023-12-28T09:40:58;7.35;;;1.70;;
24650;SDS011;12783;48.824;8.662;2023-12-28T09:43:45;2.28;;;1.35;;
24650;SDS011;12783;48.824;8.662;2023-12-28T09:46:31;2.38;;;1.38;;
24650;SDS011;12783;48.824;8.662;2023-12-28T09:48:59;2.88;;;1.63;;
24650;SDS011;12783;48.824;8.662;2023-12-28T09:51:26;2.95;;;1.60;;
24650;SDS011;12783;48.824;8.662;2023-12-28T09:53:54;2.95;;;1.63;;
24650;SDS011;12783;48.824;8.662;2023-12-28T09:56:23;2.38;;;1.40;;
24650;SDS011;12783;48.824;8.662;2023-12-28T09:58:54;4.78;;;1.77;;
24650;SDS011;12783;48.824;8.662;2023-12-28T10:01:23;2.05;;;1.45;;
24650;SDS011;12783;48.824;8.662;2023-12-28T10:03:50;1.80;;;1.30;;
24650;SDS011;12783;48.824;8.662;2023-12-28T10:06:17;2.28;;;1.10;;
24650;SDS011;12783;48.824;8.662;2023-12-28T10:08:44;1.83;;;1.20;;
24650;SDS011;12783;48.824;8.662;2023-12-28T10:11:14;1.00;;;0.90;;
24650;SDS011;12783;48.824;8.662;2023-12-28T10:13:45;3.72;;;1.33;;
24650;SDS011;12783;48.824;8.662;2023-12-28T10:16:12;6.10;;;2.22;;
24650;SDS011;12783;48.824;8.662;2023-12-28T10:18:42;1.95;;;1.30;;
24650;SDS011;12783;48.824;8.662;2023-12-28T10:21:11;2.97;;;1.58;;
24650;SDS011;12783;48.824;8.662;2023-12-28T10:23:39;2.45;;;1.80;;
24650;SDS011;12783;48.824;8.662;2023-12-28T10:26:06;4.13;;;2.25;;
24650;SDS011;12783;48.824;8.662;2023-12-28T10:28:35;2.45;;;1.30;;
24650;SDS011;12783;48.824;8.662;2023-12-28T10:31:05;1.55;;;1.30;;
24650;SDS011;12783;48.824;8.662;2023-12-28T10:33:35;4.15;;;1.42;;
24650;SDS011;12783;48.824;8.662;2023-12-28T10:36:07;2.72;;;1.10;;
24650;SDS011;12783;48.824;8.662;2023-12-28T10:38:36;3.30;;;1.38;;
24650;SDS011;12783;48.824;8.662;2023-12-28T10:41:05;2.17;;;0.90;;
24650;SDS011;12783;48.824;8.662;2023-12-28T10:43:44;3.17;;;0.90;;
24650;SDS011;12783;48.824;8.662;2023-12-28T10:46:22;2.30;;;0.88;;
24650;SDS011;12783;48.824;8.662;2023-12-28T10:48:58;7.30;;;1.50;;
24650;SDS011;12783;48.824;8.662;2023-12-28T10:51:43;1.25;;;0.90;;
24650;SDS011;12783;48.824;8.662;2023-12-28T10:57:27;1.02;;;0.90;;
24650;SDS011;12783;48.824;8.662;2023-12-28T11:00:16;1.10;;;0.88;;
24650;SDS011;12783;48.824;8.662;2023-12-28T11:02:52;2.08;;;1.17;;
24650;SDS011;12783;48.824;8.662;2023-12-28T11:05:23;1.23;;;1.02;;
24650;SDS011;12783;48.824;8.662;2023-12-28T11:07:52;1.17;;;1.00;;
24650;SDS011;12783;48.824;8.662;2023-12-28T11:10:24;1.75;;;1.15;;
24650;SDS011;12783;48.824;8.662;2023-12-28T11:12:51;1.05;;;0.95;;
24650;SDS011;12783;48.824;8.662;2023-12-28T11:15:19;1.40;;;1.10;;
24650;SDS011;12783;48.824;8.662;2023-12-28T11:17:50;1.88;;;1.30;;
24650;SDS011;12783;48.824;8.662;2023-12-28T11:20:18;2.00;;;1.42;;
24650;SDS011;12783;48.824;8.662;2023-12-28T11:22:46;1.85;;;1.33;;
24650;SDS011;12783;48.824;8.662;2023-12-28T11:25:15;3.05;;;1.23;;
24650;SDS011;12783;48.824;8.662;2023-12-28T11:27:43;3.10;;;1.33;;
24650;SDS011;12783;48.824;8.662;2023-12-28T11:30:13;1.92;;;1.20;;
24650;SDS011;12783;48.824;8.662;2023-12-28T11:32:41;1.05;;;0.90;;
24650;SDS011;12783;48.824;8.662;2023-12-28T11:35:11;1.67;;;1.30;;
24650;SDS011;12783;48.824;8.662;2023-12-28T11:37:41;1.50;;;1.40;;
24650;SDS011;12783;48.824;8.662;2023-12-28T11:40:13;1.85;;;1.55;;
24650;SDS011;12783;48.824;8.662;2023-12-28T11:42:53;3.60;;;1.52;;
24650;SDS011;12783;48.824;8.662;2023-12-28T11:45:24;1.40;;;1.30;;
24650;SDS011;12783;48.824;8.662;2023-12-28T11:48:01;2.63;;;1.90;;
24650;SDS011;12783;48.824;8.662;2023-12-28T11:50:29;1.73;;;1.30;;
24650;SDS011;12783;48.824;8.662;2023-12-28T11:52:57;1.83;;;1.55;;
24650;SDS011;12783;48.824;8.662;2023-12-28T11:55:25;4.47;;;2.05;;
24650;SDS011;12783;48.824;8.662;2023-12-28T11:57:52;4.50;;;2.00;;
24650;SDS011;12783;48.824;8.662;2023-12-28T12:00:19;3.72;;;1.85;;
24650;SDS011;12783;48.824;8.662;2023-12-28T12:02:47;2.65;;;2.03;;
24650;SDS011;12783;48.824;8.662;2023-12-28T12:05:14;1.73;;;1.15;;
24650;SDS011;12783;48.824;8.662;2023-12-28T12:07:41;0.90;;;0.70;;
24650;SDS011;12783;48.824;8.662;2023-12-28T12:10:13;1.15;;;0.90;;
24650;SDS011;12783;48.824;8.662;2023-12-28T12:12:42;1.73;;;1.00;;
24650;SDS011;12783;48.824;8.662;2023-12-28T12:15:09;4.35;;;1.50;;
24650;SDS011;12783;48.824;8.662;2023-12-28T12:17:37;2.13;;;1.20;;
24650;SDS011;12783;48.824;8.662;2023-12-28T12:20:05;1.67;;;1.13;;
24650;SDS011;12783;48.824;8.662;2023-12-28T12:22:32;1.70;;;1.20;;
24650;SDS011;12783;48.824;8.662;2023-12-28T12:24:59;1.77;;;1.30;;
24650;SDS011;12783;48.824;8.662;2023-12-28T12:27:30;3.50;;;1.92;;
24650;SDS011;12783;48.824;8.662;2023-12-28T12:29:58;3.58;;;1.40;;
24650;SDS011;12783;48.824;8.662;2023-12-28T12:32:25;3.67;;;1.17;;
24650;SDS011;12783;48.824;8.662;2023-12-28T12:34:53;2.17;;;1.45;;
24650;SDS011;12783;48.824;8.662;2023-12-28T12:37:20;2.05;;;1.50;;
24650;SDS011;12783;48.824;8.662;2023-12-28T12:39:47;2.17;;;1.30;;
24650;SDS011;12783;48.824;8.662;2023-12-28T12:42:15;1.38;;;0.90;;
24650;SDS011;12783;48.824;8.662;2023-12-28T12:44:43;1.00;;;0.73;;
24650;SDS011;12783;48.824;8.662;2023-12-28T12:47:10;1.00;;;0.80;;
24650;SDS011;12783;48.824;8.662;2023-12-28T12:49:38;2.15;;;0.93;;
24650;SDS011;12783;48.824;8.662;2023-12-28T12:52:07;0.82;;;0.75;;
24650;SDS011;12783;48.824;8.662;2023-12-28T12:54:34;1.88;;;0.90;;
24650;SDS011;12783;48.824;8.662;2023-12-28T12:57:01;0.93;;;0.85;;
24650;SDS011;12783;48.824;8.662;2023-12-28T12:59:29;1.10;;;0.90;;
24650;SDS011;12783;48.824;8.662;2023-12-28T13:01:57;3.30;;;0.95;;
24650;SDS011;12783;48.824;8.662;2023-12-28T13:04:23;3.38;;;0.95;;
24650;SDS011;12783;48.824;8.662;2023-12-28T13:06:50;1.70;;;1.08;;
24650;SDS011;12783;48.824;8.662;2023-12-28T13:09:17;1.77;;;1.17;;
24650;SDS011;12783;48.824;8.662;2023-12-28T13:11:44;1.08;;;1.00;;
24650;SDS011;12783;48.824;8.662;2023-12-28T13:14:15;1.30;;;1.00;;
24650;SDS011;12783;48.824;8.662;2023-12-28T13:16:42;1.00;;;0.90;;
24650;SDS011;12783;48.824;8.662;2023-12-28T13:19:09;0.90;;;0.77;;
24650;SDS011;12783;48.824;8.662;2023-12-28T13:21:36;3.53;;;1.38;;
24650;SDS011;12783;48.824;8.662;2023-12-28T13:24:03;1.98;;;1.10;;
24650;SDS011;12783;48.824;8.662;2023-12-28T13:26:30;2.42;;;1.50;;
24650;SDS011;12783;48.824;8.662;2023-12-28T13:28:57;1.50;;;1.13;;
24650;SDS011;12783;48.824;8.662;2023-12-28T13:31:24;1.40;;;1.10;;
24650;SDS011;12783;48.824;8.662;2023-12-28T13:33:52;2.65;;;0.90;;
24650;SDS011;12783;48.824;8.662;2023-12-28T13:36:19;1.17;;;0.93;;
24650;SDS011;12783;48.824;8.662;2023-12-28T13:38:46;1.08;;;0.98;;
24650;SDS011;12783;48.824;8.662;2023-12-28T13:41:14;0.85;;;0.80;;
24650;SDS011;12783;48.824;8.662;2023-12-28T13:43:41;1.30;;;0.93;;
24650;SDS011;12783;48.824;8.662;2023-12-28T13:46:08;1.95;;;0.85;;
24650;SDS011;12783;48.824;8.662;2023-12-28T13:48:35;0.98;;;0.80;;
24650;SDS011;12783;48.824;8.662;2023-12-28T13:51:05;0.77;;;0.77;;
24650;SDS011;12783;48.824;8.662;2023-12-28T13:53:32;0.88;;;0.77;;
24650;SDS011;12783;48.824;8.662;2023-12-28T13:56:06;0.75;;;0.70;;
24650;SDS011;12783;48.824;8.662;2023-12-28T13:58:34;1.08;;;0.70;;
24650;SDS011;12783;48.824;8.662;2023-12-28T14:01:01;2.17;;;1.50;;
24650;SDS011;12783;48.824;8.662;2023-12-28T14:03:29;4.13;;;1.88;;
24650;SDS011;12783;48.824;8.662;2023-12-28T14:05:57;3.92;;;2.13;;
24650;SDS011;12783;48.824;8.662;2023-12-28T14:08:23;4.07;;;2.97;;
24650;SDS011;12783;48.824;8.662;2023-12-28T14:10:50;3.95;;;2.45;;
24650;SDS011;12783;48.824;8.662;2023-12-28T14:13:17;1.73;;;1.20;;
24650;SDS011;12783;48.824;8.662;2023-12-28T14:15:44;2.50;;;1.30;;
24650;SDS011;12783;48.824;8.662;2023-12-28T14:18:11;2.13;;;1.50;;
24650;SDS011;12783;48.824;8.662;2023-12-28T14:20:37;1.90;;;1.27;;
24650;SDS011;12783;48.824;8.662;2023-12-28T14:23:04;1.90;;;1.20;;
24650;SDS011;12783;48.824;8.662;2023-12-28T14:25:34;1.48;;;1.30;;
24650;SDS011;12783;48.824;8.662;2023-12-28T14:28:02;4.63;;;1.98;;
24650;SDS011;12783;48.824;8.662;2023-12-28T14:30:29;3.33;;;2.33;;
24650;SDS011;12783;48.824;8.662;2023-12-28T14:33:06;5.70;;;2.90;;
24650;SDS011;12783;48.824;8.662;2023-12-28T14:35:34;1.80;;;1.58;;
24650;SDS011;12783;48.824;8.662;2023-12-28T14:38:01;2.70;;;1.50;;
24650;SDS011;12783;48.824;8.662;2023-12-28T14:40:28;3.17;;;2.08;;
24650;SDS011;12783;48.824;8.662;2023-12-28T14:42:55;3.75;;;2.00;;
24650;SDS011;12783;48.824;8.662;2023-12-28T14:45:22;3.92;;;1.88;;
24650;SDS011;12783;48.824;8.662;2023-12-28T14:47:49;1.92;;;1.60;;
24650;SDS011;12783;48.824;8.662;2023-12-28T14:50:16;2.10;;;1.40;;
24650;SDS011;12783;48.824;8.662;2023-12-28T14:52:43;2.35;;;1.52;;
24650;SDS011;12783;48.824;8.662;2023-12-28T14:55:10;3.17;;;2.50;;